• Join FlightAware (Why Join?)
  • Login
  • US Flag 
02:00AM EDT


 

Airport Tracker/Info


-or-


 

Live Flight TrackerFlight Track Log ✈ KAP927 ✈ 15-May-2013 ✈ KBOS - KALB

Flight Track Log - Related Links

Times and Time Zones

All times are in EDT time to prevent confusion due to time zone crossing. See the KAP927 flight status page for this flight to view local times or setup timezone preferences in your user account.

Time Position Orientation Groundspeed Altitude Reporting Facility
EDT Latitude Longitude Course Direction KTS MPH feet Rate Location/Type
01:09PM 42.3667 -71.0167 236° Southwest 94 108 400  Level KA90
01:10PM 42.3500 -71.0500 236° Southwest 103 119 1,100 780 Climbing KA90
01:11PM 42.3500 -71.0833 270° West 108 124 1,900 720 Climbing KA90
01:12PM 42.3500 -71.1167 270° West 108 124 2,600 660 Climbing KA90
01:13PM 42.3333 -71.1667 246° West 113 130 3,300 660 Climbing KA90
01:14PM 42.3333 -71.2000 270° West 118 136 4,000 660 Climbing KA90
01:15PM 42.3333 -71.2500 270° West 119 137 4,700 780 Climbing KA90
01:16PM 42.3333 -71.3000 270° West 117 135 5,600 720 Climbing KA90
01:17PM 42.3167 -71.3333 236° Southwest 108 124 6,200 600 Climbing KA90
01:18PM 42.3167 -71.3833 270° West 111 128 6,900 600 Climbing KA90
01:19PM 42.3167 -71.4167 270° West 112 129 7,500 420 Climbing KA90
01:20PM 42.3064 -71.4547 250° West 121 139 7,700 180 Climbing Boston Center
01:21PM 42.2989 -71.5306 262° West 139 160 8,000 120 Climbing Boston Center
01:22PM 42.2908 -71.5842 259° West 149 171 8,000  Level Boston Center
01:23PM 42.2850 -71.6375 262° West 150 173 8,000  Level Boston Center
01:24PM 42.2811 -71.6936 265° West 152 175 8,000  Level Boston Center
01:25PM 42.2733 -71.7500 259° West 141 162 8,000  Level Boston Center
01:26PM 42.2694 -71.8006 264° West 139 160 8,000  Level Boston Center
01:27PM 42.2656 -71.8594 265° West 141 162 8,000  Level Boston Center
01:28PM 42.2636 -71.9100 267° West 140 161 8,000  Level Boston Center
01:29PM 42.2681 -71.9631 276° West 141 162 8,000  Level Boston Center
01:30PM 42.2703 -72.0219 273° West 138 159 8,000  Level Boston Center
01:31PM 42.2853 -72.0725 292° West 147 169 8,000  Level Boston Center
01:32PM 42.3019 -72.1200 295° West 149 171 8,000  Level Boston Center
01:34PM 42.3272 -72.2183 289° West 146 168 8,000  Level Boston Center
01:35PM 42.3378 -72.2658 287° West 142 163 8,000  Level Boston Center
01:36PM 42.3503 -72.3164 289° West 142 163 8,000  Level Boston Center
01:37PM 42.3650 -72.3669 292° West 142 163 8,000  Level Boston Center
01:38PM 42.3775 -72.4206 288° West 141 162 8,000  Level Boston Center
01:39PM 42.3919 -72.4653 294° West 141 162 8,000  Level Boston Center
01:40PM 42.4044 -72.5161 288° West 141 162 8,000  Level Boston Center
01:41PM 42.4169 -72.5611 291° West 140 161 8,100  Climbing Boston Center
01:42PM 42.4294 -72.6061 291° West 139 160 8,100  Level Boston Center
01:43PM 42.4461 -72.6622 292° West 144 166 8,100 -120 Level Boston Center
01:43PM 42.4522 -72.6850 290° West 144 166 8,000 -120 Descending Boston Center
01:44PM 42.4606 -72.7158 290° West 142 163 8,000  Level Boston Center
01:45PM 42.4750 -72.7639 292° West 139 160 8,000  Level Boston Center
01:46PM 42.4872 -72.8117 289° West 137 158 8,000  Level Boston Center
01:47PM 42.4997 -72.8569 291° West 136 157 8,000  Level Boston Center
01:48PM 42.5119 -72.9075 288° West 140 161 8,000  Level Boston Center
01:49PM 42.5222 -72.9500 288° West 137 158 8,000  Level Boston Center
01:50PM 42.5367 -73.0008 291° West 132 152 8,000  Level Boston Center
01:51PM 42.5489 -73.0517 288° West 134 154 8,000 -120 Level Boston Center
01:52PM 42.5611 -73.1053 287° West 134 154 7,800 -420 Descending Boston Center
01:53PM 42.5794 -73.1647 293° West 150 173 7,100 -840 Descending Boston Center
01:54PM 42.5936 -73.2214 289° West 174 200 6,200 -840 Descending Boston Center
01:55PM 42.6119 -73.2836 292° West 186 214 5,500 -600 Descending Boston Center
01:56PM 42.6342 -73.3544 293° West 177 204 5,000 -600 Descending Boston Center
01:57PM 42.6464 -73.4139 286° West 167 192 4,300 -600 Descending Boston Center
01:58PM 42.6606 -73.4678 290° West 174 200 3,900 -420 Descending Boston Center
01:59PM 42.6869 -73.5331 299° West 190 219 3,500 -360 Descending Boston Center
02:00PM 42.7156 -73.5958 302° West 186 214 3,200 -360 Descending Boston Center
02:01PM 42.7419 -73.6586 300° West 187 215 2,800 -480 Descending Boston Center
02:02PM 42.7642 -73.7183 297° West 187 215 2,300 -600 Descending Boston Center
02:03PM 42.7781 -73.7725 289° West 168 193 1,700 -840 Descending Boston Center
02:04PM 42.7756 -73.8064 264° West 94 108 800 -900 Descending Boston Center
02:06PM 42.7491 -73.8020 173° South  Level Estimated
02:13PM 42.7491 -73.8020 304° West  Level Estimated
02:14PM 42.7491 -73.8020 304° West  Level Estimated
02:15PM 42.7491 -73.8020 304° West  Level Estimated